sensor_id;sensor_type;location;lat;lon;timestamp;temperature;humidity
7411;DHT22;3747;48.628;9.058;2022-07-29T00:01:30;16.80;99.90
7411;DHT22;3747;48.628;9.058;2022-07-29T00:03:57;16.70;99.90
7411;DHT22;3747;48.628;9.058;2022-07-29T00:06:23;16.70;99.90
7411;DHT22;3747;48.628;9.058;2022-07-29T00:08:50;16.60;99.90
7411;DHT22;3747;48.628;9.058;2022-07-29T00:11:16;16.40;99.90
7411;DHT22;3747;48.628;9.058;2022-07-29T00:13:43;16.40;99.90
7411;DHT22;3747;48.628;9.058;2022-07-29T00:16:10;16.30;99.90
7411;DHT22;3747;48.628;9.058;2022-07-29T00:18:38;16.20;99.90
7411;DHT22;3747;48.628;9.058;2022-07-29T00:21:04;16.30;99.90
7411;DHT22;3747;48.628;9.058;2022-07-29T00:23:31;16.30;99.90
7411;DHT22;3747;48.628;9.058;2022-07-29T00:25:58;16.30;99.90
7411;DHT22;3747;48.628;9.058;2022-07-29T00:28:24;16.30;99.90
7411;DHT22;3747;48.628;9.058;2022-07-29T00:30:51;16.20;99.90
7411;DHT22;3747;48.628;9.058;2022-07-29T00:33:18;16.30;99.90
7411;DHT22;3747;48.628;9.058;2022-07-29T00:35:46;16.20;99.90
7411;DHT22;3747;48.628;9.058;2022-07-29T00:38:13;16.30;99.90
7411;DHT22;3747;48.628;9.058;2022-07-29T00:40:40;16.30;99.90
7411;DHT22;3747;48.628;9.058;2022-07-29T00:43:07;16.30;99.90
7411;DHT22;3747;48.628;9.058;2022-07-29T00:45:34;16.20;99.90
7411;DHT22;3747;48.628;9.058;2022-07-29T00:48:00;16.20;99.90
7411;DHT22;3747;48.628;9.058;2022-07-29T00:50:28;16.20;99.90
7411;DHT22;3747;48.628;9.058;2022-07-29T00:52:57;16.20;99.90
7411;DHT22;3747;48.628;9.058;2022-07-29T00:55:24;16.10;99.90
7411;DHT22;3747;48.628;9.058;2022-07-29T00:57:51;16.20;99.90
7411;DHT22;3747;48.628;9.058;2022-07-29T01:00:20;16.10;99.90
7411;DHT22;3747;48.628;9.058;2022-07-29T01:02:47;16.00;99.90
7411;DHT22;3747;48.628;9.058;2022-07-29T01:05:15;16.00;99.90
7411;DHT22;3747;48.628;9.058;2022-07-29T01:07:42;15.90;99.90
7411;DHT22;3747;48.628;9.058;2022-07-29T01:10:13;15.80;99.90
7411;DHT22;3747;48.628;9.058;2022-07-29T01:12:42;15.70;99.90
7411;DHT22;3747;48.628;9.058;2022-07-29T01:15:10;15.70;99.90
7411;DHT22;3747;48.628;9.058;2022-07-29T01:17:43;15.60;99.90
7411;DHT22;3747;48.628;9.058;2022-07-29T01:20:13;15.70;99.90
7411;DHT22;3747;48.628;9.058;2022-07-29T01:22:56;15.70;99.90
7411;DHT22;3747;48.628;9.058;2022-07-29T01:25:43;15.70;99.90
7411;DHT22;3747;48.628;9.058;2022-07-29T01:31:14;15.60;99.90
7411;DHT22;3747;48.628;9.058;2022-07-29T01:33:45;15.70;99.90
7411;DHT22;3747;48.628;9.058;2022-07-29T01:36:19;15.70;99.90
7411;DHT22;3747;48.628;9.058;2022-07-29T01:39:04;15.70;99.90
7411;DHT22;3747;48.628;9.058;2022-07-29T01:41:32;15.80;99.90
7411;DHT22;3747;48.628;9.058;2022-07-29T01:44:02;15.80;99.90
7411;DHT22;3747;48.628;9.058;2022-07-29T01:46:39;15.80;99.90
7411;DHT22;3747;48.628;9.058;2022-07-29T01:49:11;15.70;99.90
7411;DHT22;3747;48.628;9.058;2022-07-29T01:51:43;15.70;99.90
7411;DHT22;3747;48.628;9.058;2022-07-29T01:54:16;15.60;99.90
7411;DHT22;3747;48.628;9.058;2022-07-29T01:56:46;15.60;99.90
7411;DHT22;3747;48.628;9.058;2022-07-29T01:59:13;15.50;99.90
7411;DHT22;3747;48.628;9.058;2022-07-29T02:01:42;15.50;99.90
7411;DHT22;3747;48.628;9.058;2022-07-29T02:04:11;15.50;99.90
7411;DHT22;3747;48.628;9.058;2022-07-29T02:06:40;15.50;99.90
7411;DHT22;3747;48.628;9.058;2022-07-29T02:09:10;15.50;99.90
7411;DHT22;3747;48.628;9.058;2022-07-29T02:11:39;15.50;99.90
7411;DHT22;3747;48.628;9.058;2022-07-29T02:14:07;15.50;99.90
7411;DHT22;3747;48.628;9.058;2022-07-29T02:16:36;15.50;99.90
7411;DHT22;3747;48.628;9.058;2022-07-29T02:19:06;15.40;99.90
7411;DHT22;3747;48.628;9.058;2022-07-29T02:21:35;15.50;99.90
7411;DHT22;3747;48.628;9.058;2022-07-29T02:24:03;15.60;99.90
7411;DHT22;3747;48.628;9.058;2022-07-29T02:26:32;15.60;99.90
7411;DHT22;3747;48.628;9.058;2022-07-29T02:29:00;15.60;99.90
7411;DHT22;3747;48.628;9.058;2022-07-29T02:31:32;15.60;99.90
7411;DHT22;3747;48.628;9.058;2022-07-29T02:34:00;15.70;99.90
7411;DHT22;3747;48.628;9.058;2022-07-29T02:36:29;15.70;99.90
7411;DHT22;3747;48.628;9.058;2022-07-29T02:38:58;15.60;99.90
7411;DHT22;3747;48.628;9.058;2022-07-29T02:41:28;15.70;99.90
7411;DHT22;3747;48.628;9.058;2022-07-29T02:43:58;15.60;99.90
7411;DHT22;3747;48.628;9.058;2022-07-29T02:46:30;15.60;99.90
7411;DHT22;3747;48.628;9.058;2022-07-29T02:49:01;15.60;99.90
7411;DHT22;3747;48.628;9.058;2022-07-29T02:51:34;15.60;99.90
7411;DHT22;3747;48.628;9.058;2022-07-29T02:54:07;15.50;99.90
7411;DHT22;3747;48.628;9.058;2022-07-29T02:56:34;15.50;99.90
7411;DHT22;3747;48.628;9.058;2022-07-29T02:59:06;15.40;99.90
7411;DHT22;3747;48.628;9.058;2022-07-29T03:01:35;15.30;99.90
7411;DHT22;3747;48.628;9.058;2022-07-29T03:04:05;15.20;99.90
7411;DHT22;3747;48.628;9.058;2022-07-29T03:06:34;15.20;99.90
7411;DHT22;3747;48.628;9.058;2022-07-29T03:09:01;15.10;99.90
7411;DHT22;3747;48.628;9.058;2022-07-29T03:11:28;15.10;99.90
7411;DHT22;3747;48.628;9.058;2022-07-29T03:13:56;15.00;99.90
7411;DHT22;3747;48.628;9.058;2022-07-29T03:16:23;14.90;99.90
7411;DHT22;3747;48.628;9.058;2022-07-29T03:18:50;15.00;99.90
7411;DHT22;3747;48.628;9.058;2022-07-29T03:21:17;15.00;99.90
7411;DHT22;3747;48.628;9.058;2022-07-29T03:23:45;15.00;99.90
7411;DHT22;3747;48.628;9.058;2022-07-29T03:26:12;15.10;99.90
7411;DHT22;3747;48.628;9.058;2022-07-29T03:28:39;15.10;99.90
7411;DHT22;3747;48.628;9.058;2022-07-29T03:31:06;15.10;99.90
7411;DHT22;3747;48.628;9.058;2022-07-29T03:33:32;15.10;99.90
7411;DHT22;3747;48.628;9.058;2022-07-29T03:35:59;15.00;99.90
7411;DHT22;3747;48.628;9.058;2022-07-29T03:38:29;14.90;99.90
7411;DHT22;3747;48.628;9.058;2022-07-29T03:41:01;14.80;99.90
7411;DHT22;3747;48.628;9.058;2022-07-29T03:43:31;14.70;99.90
7411;DHT22;3747;48.628;9.058;2022-07-29T03:46:00;14.60;99.90
7411;DHT22;3747;48.628;9.058;2022-07-29T03:48:28;14.60;99.90
7411;DHT22;3747;48.628;9.058;2022-07-29T03:50:58;14.60;99.90
7411;DHT22;3747;48.628;9.058;2022-07-29T03:53:25;14.60;99.90
7411;DHT22;3747;48.628;9.058;2022-07-29T03:55:54;14.60;99.90
7411;DHT22;3747;48.628;9.058;2022-07-29T03:58:23;14.60;99.90
7411;DHT22;3747;48.628;9.058;2022-07-29T04:00:52;14.60;99.90
7411;DHT22;3747;48.628;9.058;2022-07-29T04:03:20;14.70;99.90
7411;DHT22;3747;48.628;9.058;2022-07-29T04:05:58;14.70;99.90
7411;DHT22;3747;48.628;9.058;2022-07-29T04:08:25;14.70;99.90
7411;DHT22;3747;48.628;9.058;2022-07-29T04:10:51;14.70;99.90
7411;DHT22;3747;48.628;9.058;2022-07-29T04:13:18;14.60;99.90
7411;DHT22;3747;48.628;9.058;2022-07-29T04:15:47;14.60;99.90
7411;DHT22;3747;48.628;9.058;2022-07-29T04:18:13;14.50;99.90
7411;DHT22;3747;48.628;9.058;2022-07-29T04:20:40;14.60;99.90
7411;DHT22;3747;48.628;9.058;2022-07-29T04:23:07;14.60;99.90
7411;DHT22;3747;48.628;9.058;2022-07-29T04:25:37;14.50;99.90
7411;DHT22;3747;48.628;9.058;2022-07-29T04:28:04;14.50;99.90
7411;DHT22;3747;48.628;9.058;2022-07-29T04:30:31;14.40;99.90
7411;DHT22;3747;48.628;9.058;2022-07-29T04:33:00;14.40;99.90
7411;DHT22;3747;48.628;9.058;2022-07-29T04:35:27;14.40;99.90
7411;DHT22;3747;48.628;9.058;2022-07-29T04:37:54;14.40;99.90
7411;DHT22;3747;48.628;9.058;2022-07-29T04:40:22;14.60;99.90
7411;DHT22;3747;48.628;9.058;2022-07-29T04:42:49;14.70;99.90
7411;DHT22;3747;48.628;9.058;2022-07-29T04:45:15;14.80;99.90
7411;DHT22;3747;48.628;9.058;2022-07-29T04:47:42;15.00;99.90
7411;DHT22;3747;48.628;9.058;2022-07-29T04:50:10;15.10;99.90
7411;DHT22;3747;48.628;9.058;2022-07-29T04:52:37;15.30;99.90
7411;DHT22;3747;48.628;9.058;2022-07-29T04:55:06;15.40;99.90
7411;DHT22;3747;48.628;9.058;2022-07-29T04:57:32;15.50;99.90
7411;DHT22;3747;48.628;9.058;2022-07-29T04:59:59;15.60;99.90
7411;DHT22;3747;48.628;9.058;2022-07-29T05:02:26;15.70;99.90
7411;DHT22;3747;48.628;9.058;2022-07-29T05:04:52;15.90;99.90
7411;DHT22;3747;48.628;9.058;2022-07-29T05:07:21;16.00;99.90
7411;DHT22;3747;48.628;9.058;2022-07-29T05:09:47;16.20;99.90
7411;DHT22;3747;48.628;9.058;2022-07-29T05:12:14;16.40;99.90
7411;DHT22;3747;48.628;9.058;2022-07-29T05:14:41;16.50;99.90
7411;DHT22;3747;48.628;9.058;2022-07-29T05:17:07;16.60;99.90
7411;DHT22;3747;48.628;9.058;2022-07-29T05:19:34;16.80;99.90
7411;DHT22;3747;48.628;9.058;2022-07-29T05:22:01;17.00;99.90
7411;DHT22;3747;48.628;9.058;2022-07-29T05:24:29;17.00;99.90
7411;DHT22;3747;48.628;9.058;2022-07-29T05:26:55;17.10;99.90
7411;DHT22;3747;48.628;9.058;2022-07-29T05:29:22;17.10;99.90
7411;DHT22;3747;48.628;9.058;2022-07-29T05:31:49;17.20;99.90
7411;DHT22;3747;48.628;9.058;2022-07-29T05:34:17;17.30;99.90
7411;DHT22;3747;48.628;9.058;2022-07-29T05:36:44;17.30;99.90
7411;DHT22;3747;48.628;9.058;2022-07-29T05:39:11;17.40;99.90
7411;DHT22;3747;48.628;9.058;2022-07-29T05:41:39;17.50;99.90
7411;DHT22;3747;48.628;9.058;2022-07-29T05:44:06;17.60;99.90
7411;DHT22;3747;48.628;9.058;2022-07-29T05:46:33;17.80;99.90
7411;DHT22;3747;48.628;9.058;2022-07-29T05:49:00;17.90;99.90
7411;DHT22;3747;48.628;9.058;2022-07-29T05:51:28;18.00;99.90
7411;DHT22;3747;48.628;9.058;2022-07-29T05:53:55;18.10;99.90
7411;DHT22;3747;48.628;9.058;2022-07-29T05:56:21;18.20;99.90
7411;DHT22;3747;48.628;9.058;2022-07-29T05:58:50;18.30;99.90
7411;DHT22;3747;48.628;9.058;2022-07-29T06:01:17;18.30;99.90
7411;DHT22;3747;48.628;9.058;2022-07-29T06:03:43;18.20;99.90
7411;DHT22;3747;48.628;9.058;2022-07-29T06:06:10;18.40;99.90
7411;DHT22;3747;48.628;9.058;2022-07-29T06:08:37;18.60;99.90
7411;DHT22;3747;48.628;9.058;2022-07-29T06:11:05;18.70;99.90
7411;DHT22;3747;48.628;9.058;2022-07-29T06:13:33;19.00;99.90
7411;DHT22;3747;48.628;9.058;2022-07-29T06:16:01;19.20;99.90
7411;DHT22;3747;48.628;9.058;2022-07-29T06:18:28;19.60;99.90
7411;DHT22;3747;48.628;9.058;2022-07-29T06:20:58;20.10;99.90
7411;DHT22;3747;48.628;9.058;2022-07-29T06:23:25;20.70;99.90
7411;DHT22;3747;48.628;9.058;2022-07-29T06:25:52;20.90;99.90
7411;DHT22;3747;48.628;9.058;2022-07-29T06:28:19;21.70;99.90
7411;DHT22;3747;48.628;9.058;2022-07-29T06:30:45;22.10;99.90
7411;DHT22;3747;48.628;9.058;2022-07-29T06:33:17;22.20;99.90
7411;DHT22;3747;48.628;9.058;2022-07-29T06:35:46;22.60;99.90
7411;DHT22;3747;48.628;9.058;2022-07-29T06:38:14;22.80;99.90
7411;DHT22;3747;48.628;9.058;2022-07-29T06:40:41;22.80;99.90
7411;DHT22;3747;48.628;9.058;2022-07-29T06:43:28;23.00;99.90
7411;DHT22;3747;48.628;9.058;2022-07-29T06:45:58;23.10;99.90
7411;DHT22;3747;48.628;9.058;2022-07-29T06:48:26;23.10;99.90
7411;DHT22;3747;48.628;9.058;2022-07-29T06:50:52;23.10;99.90
7411;DHT22;3747;48.628;9.058;2022-07-29T06:53:19;23.10;99.90
7411;DHT22;3747;48.628;9.058;2022-07-29T06:55:46;22.90;99.90
7411;DHT22;3747;48.628;9.058;2022-07-29T06:58:13;22.60;99.90
7411;DHT22;3747;48.628;9.058;2022-07-29T07:00:41;22.60;99.90
7411;DHT22;3747;48.628;9.058;2022-07-29T07:03:08;22.30;99.90
7411;DHT22;3747;48.628;9.058;2022-07-29T07:05:36;22.00;99.90
7411;DHT22;3747;48.628;9.058;2022-07-29T07:08:03;22.20;99.90
7411;DHT22;3747;48.628;9.058;2022-07-29T07:10:30;22.70;99.90
7411;DHT22;3747;48.628;9.058;2022-07-29T07:12:56;22.90;99.90
7411;DHT22;3747;48.628;9.058;2022-07-29T07:15:24;23.20;99.90
7411;DHT22;3747;48.628;9.058;2022-07-29T07:17:51;23.20;99.90
7411;DHT22;3747;48.628;9.058;2022-07-29T07:20:19;23.20;99.90
7411;DHT22;3747;48.628;9.058;2022-07-29T07:22:47;23.40;99.90
7411;DHT22;3747;48.628;9.058;2022-07-29T07:25:14;23.20;99.90
7411;DHT22;3747;48.628;9.058;2022-07-29T07:27:43;22.50;99.90
7411;DHT22;3747;48.628;9.058;2022-07-29T07:30:10;22.90;99.90
7411;DHT22;3747;48.628;9.058;2022-07-29T07:32:37;23.40;99.90
7411;DHT22;3747;48.628;9.058;2022-07-29T07:35:05;24.20;99.90
7411;DHT22;3747;48.628;9.058;2022-07-29T07:37:32;24.90;99.90
7411;DHT22;3747;48.628;9.058;2022-07-29T07:40:01;25.20;99.90
7411;DHT22;3747;48.628;9.058;2022-07-29T07:42:28;25.10;99.90
7411;DHT22;3747;48.628;9.058;2022-07-29T07:44:56;24.70;99.90
7411;DHT22;3747;48.628;9.058;2022-07-29T07:47:23;24.60;99.90
7411;DHT22;3747;48.628;9.058;2022-07-29T07:49:50;24.40;99.90
7411;DHT22;3747;48.628;9.058;2022-07-29T07:52:18;24.80;99.90
7411;DHT22;3747;48.628;9.058;2022-07-29T07:54:45;24.50;99.90
7411;DHT22;3747;48.628;9.058;2022-07-29T07:57:14;24.60;99.90
7411;DHT22;3747;48.628;9.058;2022-07-29T07:59:41;25.40;99.90
7411;DHT22;3747;48.628;9.058;2022-07-29T08:02:08;25.60;99.90
7411;DHT22;3747;48.628;9.058;2022-07-29T08:04:35;25.40;99.90
7411;DHT22;3747;48.628;9.058;2022-07-29T08:07:02;25.50;99.90
7411;DHT22;3747;48.628;9.058;2022-07-29T08:09:29;25.80;99.90
7411;DHT22;3747;48.628;9.058;2022-07-29T08:11:57;25.60;99.90
7411;DHT22;3747;48.628;9.058;2022-07-29T08:14:25;25.90;99.90
7411;DHT22;3747;48.628;9.058;2022-07-29T08:16:52;25.90;99.90
7411;DHT22;3747;48.628;9.058;2022-07-29T08:19:19;25.20;99.90
7411;DHT22;3747;48.628;9.058;2022-07-29T08:21:45;25.50;99.90
7411;DHT22;3747;48.628;9.058;2022-07-29T08:24:12;26.10;99.90
7411;DHT22;3747;48.628;9.058;2022-07-29T08:26:56;26.30;99.90
7411;DHT22;3747;48.628;9.058;2022-07-29T08:29:24;26.80;99.90
7411;DHT22;3747;48.628;9.058;2022-07-29T08:31:51;26.60;99.90
7411;DHT22;3747;48.628;9.058;2022-07-29T08:34:18;26.90;99.90
7411;DHT22;3747;48.628;9.058;2022-07-29T08:36:44;27.40;99.90
7411;DHT22;3747;48.628;9.058;2022-07-29T08:39:11;27.70;99.90
7411;DHT22;3747;48.628;9.058;2022-07-29T08:41:38;27.30;99.90
7411;DHT22;3747;48.628;9.058;2022-07-29T08:44:05;27.50;99.90
7411;DHT22;3747;48.628;9.058;2022-07-29T08:46:33;27.90;99.90
7411;DHT22;3747;48.628;9.058;2022-07-29T08:49:01;28.40;99.90
7411;DHT22;3747;48.628;9.058;2022-07-29T08:51:28;28.70;99.90
7411;DHT22;3747;48.628;9.058;2022-07-29T08:53:56;29.30;99.90
7411;DHT22;3747;48.628;9.058;2022-07-29T08:56:23;29.80;99.90
7411;DHT22;3747;48.628;9.058;2022-07-29T08:58:50;29.70;99.90
7411;DHT22;3747;48.628;9.058;2022-07-29T09:01:21;29.10;99.90
7411;DHT22;3747;48.628;9.058;2022-07-29T09:03:50;28.50;99.90
7411;DHT22;3747;48.628;9.058;2022-07-29T09:06:21;28.70;99.90
7411;DHT22;3747;48.628;9.058;2022-07-29T09:08:48;28.60;99.90
7411;DHT22;3747;48.628;9.058;2022-07-29T09:11:15;29.70;99.90
7411;DHT22;3747;48.628;9.058;2022-07-29T09:13:41;29.40;99.90
7411;DHT22;3747;48.628;9.058;2022-07-29T09:16:08;29.70;99.90
7411;DHT22;3747;48.628;9.058;2022-07-29T09:18:36;29.70;99.90
7411;DHT22;3747;48.628;9.058;2022-07-29T09:21:05;30.20;99.90
7411;DHT22;3747;48.628;9.058;2022-07-29T09:24:00;29.80;99.90
7411;DHT22;3747;48.628;9.058;2022-07-29T09:26:28;30.20;99.90
7411;DHT22;3747;48.628;9.058;2022-07-29T09:28:56;31.00;99.90
7411;DHT22;3747;48.628;9.058;2022-07-29T09:31:32;31.20;99.90
7411;DHT22;3747;48.628;9.058;2022-07-29T09:33:59;29.60;99.90
7411;DHT22;3747;48.628;9.058;2022-07-29T09:36:28;29.30;99.90
7411;DHT22;3747;48.628;9.058;2022-07-29T09:38:57;28.60;99.90
7411;DHT22;3747;48.628;9.058;2022-07-29T09:41:25;28.20;99.90
7411;DHT22;3747;48.628;9.058;2022-07-29T09:43:56;27.80;99.90
7411;DHT22;3747;48.628;9.058;2022-07-29T09:46:24;27.90;99.90
7411;DHT22;3747;48.628;9.058;2022-07-29T09:49:07;27.40;99.90
7411;DHT22;3747;48.628;9.058;2022-07-29T09:51:36;26.90;99.90
7411;DHT22;3747;48.628;9.058;2022-07-29T09:54:21;27.50;99.90
7411;DHT22;3747;48.628;9.058;2022-07-29T09:56:48;28.30;99.90
7411;DHT22;3747;48.628;9.058;2022-07-29T09:59:15;28.80;99.90
7411;DHT22;3747;48.628;9.058;2022-07-29T10:01:42;29.60;99.90
7411;DHT22;3747;48.628;9.058;2022-07-29T10:04:09;30.10;99.90
7411;DHT22;3747;48.628;9.058;2022-07-29T10:06:55;30.30;99.90
7411;DHT22;3747;48.628;9.058;2022-07-29T10:09:22;30.30;99.90
7411;DHT22;3747;48.628;9.058;2022-07-29T10:12:03;31.30;99.90
7411;DHT22;3747;48.628;9.058;2022-07-29T10:14:30;31.80;99.90
7411;DHT22;3747;48.628;9.058;2022-07-29T10:16:57;32.00;99.90
7411;DHT22;3747;48.628;9.058;2022-07-29T10:19:25;32.60;99.90
7411;DHT22;3747;48.628;9.058;2022-07-29T10:21:54;32.60;99.90
7411;DHT22;3747;48.628;9.058;2022-07-29T10:24:21;32.60;99.90
7411;DHT22;3747;48.628;9.058;2022-07-29T10:26:48;32.80;99.90
7411;DHT22;3747;48.628;9.058;2022-07-29T10:29:15;32.80;99.90
7411;DHT22;3747;48.628;9.058;2022-07-29T10:31:48;33.20;99.90
7411;DHT22;3747;48.628;9.058;2022-07-29T10:34:20;32.90;99.90
7411;DHT22;3747;48.628;9.058;2022-07-29T10:36:54;32.10;99.90
7411;DHT22;3747;48.628;9.058;2022-07-29T10:39:32;31.60;99.90
7411;DHT22;3747;48.628;9.058;2022-07-29T10:42:14;31.80;99.90
7411;DHT22;3747;48.628;9.058;2022-07-29T10:44:43;31.20;99.90
7411;DHT22;3747;48.628;9.058;2022-07-29T10:47:20;30.80;99.90
7411;DHT22;3747;48.628;9.058;2022-07-29T10:49:56;30.30;99.90
7411;DHT22;3747;48.628;9.058;2022-07-29T10:52:25;29.90;99.90
7411;DHT22;3747;48.628;9.058;2022-07-29T10:55:30;27.80;99.90
7411;DHT22;3747;48.628;9.058;2022-07-29T10:58:11;25.80;99.90
7411;DHT22;3747;48.628;9.058;2022-07-29T11:00:38;24.30;99.90
7411;DHT22;3747;48.628;9.058;2022-07-29T11:03:05;23.20;99.90
7411;DHT22;3747;48.628;9.058;2022-07-29T11:05:55;22.50;99.90
7411;DHT22;3747;48.628;9.058;2022-07-29T11:08:25;21.20;99.90
7411;DHT22;3747;48.628;9.058;2022-07-29T11:13:58;18.40;99.90
7411;DHT22;3747;48.628;9.058;2022-07-29T11:16:24;17.70;99.90
7411;DHT22;3747;48.628;9.058;2022-07-29T11:19:19;17.30;99.90
7411;DHT22;3747;48.628;9.058;2022-07-29T11:21:46;17.20;99.90
7411;DHT22;3747;48.628;9.058;2022-07-29T11:24:16;17.10;99.90
7411;DHT22;3747;48.628;9.058;2022-07-29T11:26:44;16.80;99.90
7411;DHT22;3747;48.628;9.058;2022-07-29T11:29:18;16.70;99.90
7411;DHT22;3747;48.628;9.058;2022-07-29T11:31:48;16.80;99.90
7411;DHT22;3747;48.628;9.058;2022-07-29T11:34:24;16.80;99.90
7411;DHT22;3747;48.628;9.058;2022-07-29T11:37:13;16.70;99.90
7411;DHT22;3747;48.628;9.058;2022-07-29T11:39:41;16.70;99.90
7411;DHT22;3747;48.628;9.058;2022-07-29T11:42:40;16.70;99.90
7411;DHT22;3747;48.628;9.058;2022-07-29T11:45:09;16.60;99.90
7411;DHT22;3747;48.628;9.058;2022-07-29T11:47:37;16.40;99.90
7411;DHT22;3747;48.628;9.058;2022-07-29T11:50:06;16.40;99.90
7411;DHT22;3747;48.628;9.058;2022-07-29T11:52:33;16.40;99.90
7411;DHT22;3747;48.628;9.058;2022-07-29T11:55:04;16.60;99.90
7411;DHT22;3747;48.628;9.058;2022-07-29T11:57:31;16.70;99.90
7411;DHT22;3747;48.628;9.058;2022-07-29T12:00:05;16.80;99.90
7411;DHT22;3747;48.628;9.058;2022-07-29T12:02:40;16.90;99.90
7411;DHT22;3747;48.628;9.058;2022-07-29T12:05:08;17.10;99.90
7411;DHT22;3747;48.628;9.058;2022-07-29T12:07:36;17.30;99.90
7411;DHT22;3747;48.628;9.058;2022-07-29T12:10:04;17.50;99.90
7411;DHT22;3747;48.628;9.058;2022-07-29T12:12:31;17.60;99.90
7411;DHT22;3747;48.628;9.058;2022-07-29T12:15:08;17.70;99.90
7411;DHT22;3747;48.628;9.058;2022-07-29T12:17:41;17.80;99.90
7411;DHT22;3747;48.628;9.058;2022-07-29T12:20:08;18.00;99.90
7411;DHT22;3747;48.628;9.058;2022-07-29T12:22:36;18.10;99.90
7411;DHT22;3747;48.628;9.058;2022-07-29T12:25:06;18.20;99.90
7411;DHT22;3747;48.628;9.058;2022-07-29T12:27:34;18.40;99.90
7411;DHT22;3747;48.628;9.058;2022-07-29T12:30:03;18.50;99.90
7411;DHT22;3747;48.628;9.058;2022-07-29T12:32:33;18.70;99.90
7411;DHT22;3747;48.628;9.058;2022-07-29T12:35:03;18.90;99.90
7411;DHT22;3747;48.628;9.058;2022-07-29T12:37:34;19.30;99.90
7411;DHT22;3747;48.628;9.058;2022-07-29T12:40:04;19.50;99.90
7411;DHT22;3747;48.628;9.058;2022-07-29T12:42:33;19.70;99.90
7411;DHT22;3747;48.628;9.058;2022-07-29T12:45:00;19.80;99.90
7411;DHT22;3747;48.628;9.058;2022-07-29T12:47:28;19.70;99.90
7411;DHT22;3747;48.628;9.058;2022-07-29T12:50:09;19.50;99.90
7411;DHT22;3747;48.628;9.058;2022-07-29T12:52:36;19.40;99.90
7411;DHT22;3747;48.628;9.058;2022-07-29T12:55:03;19.20;99.90
7411;DHT22;3747;48.628;9.058;2022-07-29T12:57:30;19.10;99.90
7411;DHT22;3747;48.628;9.058;2022-07-29T13:00:05;18.80;99.90
7411;DHT22;3747;48.628;9.058;2022-07-29T13:02:34;18.30;99.90
7411;DHT22;3747;48.628;9.058;2022-07-29T13:05:01;18.10;99.90
7411;DHT22;3747;48.628;9.058;2022-07-29T13:07:32;18.00;99.90
7411;DHT22;3747;48.628;9.058;2022-07-29T13:10:12;18.00;99.90
7411;DHT22;3747;48.628;9.058;2022-07-29T13:13:03;17.90;99.90
7411;DHT22;3747;48.628;9.058;2022-07-29T13:15:31;17.90;99.90
7411;DHT22;3747;48.628;9.058;2022-07-29T13:17:57;18.00;99.90
7411;DHT22;3747;48.628;9.058;2022-07-29T13:20:26;18.00;99.90
7411;DHT22;3747;48.628;9.058;2022-07-29T13:22:56;18.10;99.90
7411;DHT22;3747;48.628;9.058;2022-07-29T13:25:25;18.30;99.90
7411;DHT22;3747;48.628;9.058;2022-07-29T13:27:52;18.30;99.90
7411;DHT22;3747;48.628;9.058;2022-07-29T13:30:21;18.40;99.90
7411;DHT22;3747;48.628;9.058;2022-07-29T13:32:51;18.60;99.90
7411;DHT22;3747;48.628;9.058;2022-07-29T13:35:18;18.70;99.90
7411;DHT22;3747;48.628;9.058;2022-07-29T13:37:45;18.90;99.90
7411;DHT22;3747;48.628;9.058;2022-07-29T13:40:14;18.90;99.90
7411;DHT22;3747;48.628;9.058;2022-07-29T13:42:41;19.00;99.90
7411;DHT22;3747;48.628;9.058;2022-07-29T13:45:14;19.30;99.90
7411;DHT22;3747;48.628;9.058;2022-07-29T13:47:41;19.80;99.90
7411;DHT22;3747;48.628;9.058;2022-07-29T13:50:08;20.30;99.90
7411;DHT22;3747;48.628;9.058;2022-07-29T13:52:36;21.10;99.90
7411;DHT22;3747;48.628;9.058;2022-07-29T13:55:03;21.80;99.90
7411;DHT22;3747;48.628;9.058;2022-07-29T13:57:32;22.30;99.90
7411;DHT22;3747;48.628;9.058;2022-07-29T13:59:58;22.60;99.90
7411;DHT22;3747;48.628;9.058;2022-07-29T14:02:25;22.80;99.90
7411;DHT22;3747;48.628;9.058;2022-07-29T14:05:05;23.10;99.90
7411;DHT22;3747;48.628;9.058;2022-07-29T14:07:31;23.30;99.90
7411;DHT22;3747;48.628;9.058;2022-07-29T14:09:58;23.20;99.90
7411;DHT22;3747;48.628;9.058;2022-07-29T14:12:25;23.30;99.90
7411;DHT22;3747;48.628;9.058;2022-07-29T14:14:53;23.40;99.90
7411;DHT22;3747;48.628;9.058;2022-07-29T14:17:20;23.40;99.90
7411;DHT22;3747;48.628;9.058;2022-07-29T14:19:50;23.30;99.90
7411;DHT22;3747;48.628;9.058;2022-07-29T14:22:17;23.20;99.90
7411;DHT22;3747;48.628;9.058;2022-07-29T14:24:44;23.30;99.90
7411;DHT22;3747;48.628;9.058;2022-07-29T14:27:11;23.40;99.90
7411;DHT22;3747;48.628;9.058;2022-07-29T14:29:38;23.40;99.90
7411;DHT22;3747;48.628;9.058;2022-07-29T14:32:06;23.10;99.90
7411;DHT22;3747;48.628;9.058;2022-07-29T14:34:34;23.20;99.90
7411;DHT22;3747;48.628;9.058;2022-07-29T14:37:01;23.40;99.90
7411;DHT22;3747;48.628;9.058;2022-07-29T14:39:28;23.50;99.90
7411;DHT22;3747;48.628;9.058;2022-07-29T14:41:55;23.60;99.90
7411;DHT22;3747;48.628;9.058;2022-07-29T14:44:22;23.50;99.90
7411;DHT22;3747;48.628;9.058;2022-07-29T14:46:48;23.50;99.90
7411;DHT22;3747;48.628;9.058;2022-07-29T14:49:16;23.50;99.90
7411;DHT22;3747;48.628;9.058;2022-07-29T14:51:43;23.40;99.90
7411;DHT22;3747;48.628;9.058;2022-07-29T14:54:10;23.10;99.90
7411;DHT22;3747;48.628;9.058;2022-07-29T14:56:36;22.60;99.90
7411;DHT22;3747;48.628;9.058;2022-07-29T14:59:03;22.50;99.90
7411;DHT22;3747;48.628;9.058;2022-07-29T15:01:31;22.20;99.90
7411;DHT22;3747;48.628;9.058;2022-07-29T15:03:57;22.00;99.90
7411;DHT22;3747;48.628;9.058;2022-07-29T15:06:25;21.90;99.90
7411;DHT22;3747;48.628;9.058;2022-07-29T15:08:52;22.00;99.90
7411;DHT22;3747;48.628;9.058;2022-07-29T15:11:34;22.20;99.90
7411;DHT22;3747;48.628;9.058;2022-07-29T15:14:01;22.40;99.90
7411;DHT22;3747;48.628;9.058;2022-07-29T15:16:35;22.70;99.90
7411;DHT22;3747;48.628;9.058;2022-07-29T15:19:02;22.80;99.90
7411;DHT22;3747;48.628;9.058;2022-07-29T15:21:30;22.50;99.90
7411;DHT22;3747;48.628;9.058;2022-07-29T15:23:57;22.60;99.90
7411;DHT22;3747;48.628;9.058;2022-07-29T15:26:23;22.80;99.90
7411;DHT22;3747;48.628;9.058;2022-07-29T15:28:50;22.90;99.90
7411;DHT22;3747;48.628;9.058;2022-07-29T15:31:17;23.00;99.90
7411;DHT22;3747;48.628;9.058;2022-07-29T15:33:45;23.00;99.90
7411;DHT22;3747;48.628;9.058;2022-07-29T15:36:11;23.10;99.90
7411;DHT22;3747;48.628;9.058;2022-07-29T15:38:39;23.00;99.90
7411;DHT22;3747;48.628;9.058;2022-07-29T15:41:06;23.00;99.90
7411;DHT22;3747;48.628;9.058;2022-07-29T15:43:33;22.90;99.90
7411;DHT22;3747;48.628;9.058;2022-07-29T15:46:00;22.70;99.90
7411;DHT22;3747;48.628;9.058;2022-07-29T15:48:45;22.60;99.90
7411;DHT22;3747;48.628;9.058;2022-07-29T15:51:11;22.60;99.90
7411;DHT22;3747;48.628;9.058;2022-07-29T15:53:39;22.60;99.90
7411;DHT22;3747;48.628;9.058;2022-07-29T15:56:06;22.70;99.90
7411;DHT22;3747;48.628;9.058;2022-07-29T15:58:33;22.80;99.90
7411;DHT22;3747;48.628;9.058;2022-07-29T16:00:59;22.80;99.90
7411;DHT22;3747;48.628;9.058;2022-07-29T16:03:26;22.70;99.90
7411;DHT22;3747;48.628;9.058;2022-07-29T16:05:53;23.10;99.90
7411;DHT22;3747;48.628;9.058;2022-07-29T16:08:19;23.40;99.90
7411;DHT22;3747;48.628;9.058;2022-07-29T16:10:47;23.60;99.90
7411;DHT22;3747;48.628;9.058;2022-07-29T16:13:14;23.80;99.90
7411;DHT22;3747;48.628;9.058;2022-07-29T16:15:41;23.80;99.90
7411;DHT22;3747;48.628;9.058;2022-07-29T16:18:07;23.90;99.90
7411;DHT22;3747;48.628;9.058;2022-07-29T16:20:34;23.70;99.90